Aliq, Pennsylvania
Current Conditions -  °F | °C
As of 9:51 PM on Friday 21 Nov 2014 (Local Time) from KPIT Reporting Station
Clear Clear  
Wind Chill: 19°   Ceiling: Unl
Heat Index: 19°   Visibility: 10mi
Dew Point:   Wind: 3mph
Humidity: 65%   Direction: 170°S
Pressure: 30.43"   Gusts: NA
Location:  40.5921°N, 80.3191°W
Report Text: KPIT 220251Z 17003KT 10SM CLR M07/M13 A3043 RMK AO2 SLP333 T10721128 58009
Loading
Personal Weather Stations






























Interactive Weather Map New forecast layout! Learn more

10-Day Weather Forecast

Advertisements
Track Severe Weather on mobile